createdAt,value
2023-04-15T00:00:37.496Z,4.70
2023-04-15T00:03:41.283Z,4.69
2023-04-15T00:06:51.469Z,4.74
2023-04-15T00:09:56.224Z,4.74
2023-04-15T00:12:58.812Z,4.76
2023-04-15T00:16:02.332Z,4.82
2023-04-15T00:19:05.010Z,4.83
2023-04-15T00:22:08.273Z,4.88
2023-04-15T00:25:11.590Z,4.87
2023-04-15T00:28:14.483Z,4.92
2023-04-15T00:31:18.363Z,4.96
2023-04-15T00:34:21.945Z,4.97
2023-04-15T00:37:24.482Z,5.00
2023-04-15T00:40:27.862Z,5.03
2023-04-15T00:43:30.516Z,5.03
2023-04-15T00:46:35.944Z,5.04
2023-04-15T00:49:38.435Z,5.04
2023-04-15T00:52:41.583Z,5.05
2023-04-15T00:55:44.133Z,4.93
2023-04-15T00:58:47.085Z,4.96
2023-04-15T01:01:49.888Z,4.97
2023-04-15T01:04:52.850Z,4.97
2023-04-15T01:07:55.394Z,4.99
2023-04-15T01:10:59.033Z,4.97
2023-04-15T01:14:02.536Z,5.01
2023-04-15T01:17:05.453Z,5.00
2023-04-15T01:20:12.305Z,5.01
2023-04-15T01:23:17.006Z,4.99
2023-04-15T01:26:19.917Z,4.98
2023-04-15T01:29:23.299Z,4.98
2023-04-15T01:32:27.172Z,4.99
2023-04-15T01:35:30.263Z,5.00
2023-04-15T01:38:33.412Z,5.00
2023-04-15T01:41:36.538Z,5.00
2023-04-15T01:44:39.176Z,5.01
2023-04-15T01:47:42.096Z,5.01
2023-04-15T01:50:46.498Z,5.01
2023-04-15T01:53:50.265Z,5.02
2023-04-15T01:56:52.980Z,4.87
2023-04-15T01:59:56.229Z,5.02
2023-04-15T02:02:59.552Z,5.02
2023-04-15T02:06:02.592Z,5.09
2023-04-15T02:09:05.213Z,5.08
2023-04-15T02:12:08.222Z,5.11
2023-04-15T02:15:11.274Z,5.10
2023-04-15T02:18:14.222Z,5.05
2023-04-15T02:21:20.350Z,5.11
2023-04-15T02:24:23.183Z,5.11
2023-04-15T02:27:26.220Z,5.15
2023-04-15T02:30:29.209Z,5.13
2023-04-15T02:33:32.415Z,5.17
2023-04-15T02:36:36.261Z,5.22
2023-04-15T02:39:41.042Z,5.25
2023-04-15T02:42:44.717Z,5.26
2023-04-15T02:45:48.719Z,5.25
2023-04-15T02:48:53.337Z,5.23
2023-04-15T02:51:58.252Z,5.27
2023-04-15T02:55:02.616Z,5.26
2023-04-15T02:58:05.853Z,5.27
2023-04-15T03:01:12.166Z,5.29
2023-04-15T03:04:15.876Z,5.25
2023-04-15T03:07:18.858Z,5.25
2023-04-15T03:10:22.338Z,5.29
2023-04-15T03:13:25.409Z,5.30
2023-04-15T03:16:29.007Z,5.31
2023-04-15T03:19:33.497Z,5.30
2023-04-15T03:22:36.626Z,5.35
2023-04-15T03:25:39.991Z,5.26
2023-04-15T03:28:42.854Z,5.29
2023-04-15T03:31:46.263Z,5.31
2023-04-15T03:34:48.859Z,5.32
2023-04-15T03:37:51.792Z,5.39
2023-04-15T03:40:54.326Z,5.43
2023-04-15T03:43:57.432Z,5.46
2023-04-15T03:47:00.071Z,5.47
2023-04-15T03:50:03.089Z,5.48
2023-04-15T03:53:06.035Z,5.47
2023-04-15T03:56:08.836Z,5.47
2023-04-15T03:59:11.559Z,5.48
2023-04-15T04:02:14.555Z,5.51
2023-04-15T04:05:17.563Z,5.50
2023-04-15T04:08:21.701Z,5.42
2023-04-15T04:11:24.723Z,5.43
2023-04-15T04:14:29.804Z,5.44
2023-04-15T04:17:32.962Z,5.42
2023-04-15T04:20:35.645Z,5.45
2023-04-15T04:23:38.660Z,5.48
2023-04-15T04:26:41.544Z,5.49
2023-04-15T04:29:44.524Z,5.48
2023-04-15T04:32:47.173Z,5.50
2023-04-15T04:35:50.079Z,5.56
2023-04-15T04:38:52.655Z,5.62
2023-04-15T04:41:56.084Z,5.61
2023-04-15T04:44:58.824Z,5.64
2023-04-15T04:48:01.809Z,5.65
2023-04-15T04:51:04.411Z,5.68
2023-04-15T04:54:07.655Z,5.74
2023-04-15T04:57:10.177Z,5.79
2023-04-15T05:00:14.134Z,5.79
2023-04-15T05:03:17.411Z,5.74
2023-04-15T05:06:20.601Z,5.73
2023-04-15T05:09:23.419Z,5.69
2023-04-15T05:12:26.680Z,5.73
2023-04-15T05:15:29.278Z,5.75
2023-04-15T05:18:32.381Z,5.80
2023-04-15T05:21:35.317Z,5.81
2023-04-15T05:24:38.957Z,5.87
2023-04-15T05:27:41.575Z,5.91
2023-04-15T05:30:44.453Z,5.92
2023-04-15T05:33:47.244Z,5.90
2023-04-15T05:36:50.491Z,5.90
2023-04-15T05:39:53.167Z,5.95
2023-04-15T05:42:56.223Z,5.93
2023-04-15T05:45:58.935Z,6.00
2023-04-15T05:49:02.030Z,6.07
2023-04-15T05:52:05.768Z,6.16
2023-04-15T05:55:08.966Z,6.18
2023-04-15T05:58:11.563Z,6.16
2023-04-15T06:01:14.598Z,6.30
2023-04-15T06:04:17.839Z,6.43
2023-04-15T06:07:20.643Z,6.39
2023-04-15T06:10:23.580Z,6.47
2023-04-15T06:13:26.205Z,6.55
2023-04-15T06:16:29.080Z,6.52
2023-04-15T06:19:32.113Z,6.54
2023-04-15T06:22:34.926Z,6.57
2023-04-15T06:25:37.603Z,6.62
2023-04-15T06:28:40.788Z,6.67
2023-04-15T06:31:50.208Z,6.67
2023-04-15T06:34:53.119Z,6.69
2023-04-15T06:37:55.764Z,6.76
2023-04-15T06:40:58.679Z,6.82
2023-04-15T06:44:01.256Z,6.82
2023-04-15T06:47:04.177Z,6.83
2023-04-15T06:50:07.639Z,6.91
2023-04-15T06:53:10.551Z,6.97
2023-04-15T06:56:13.151Z,6.95
2023-04-15T06:59:16.107Z,7.03
2023-04-15T07:02:18.998Z,7.11
2023-04-15T07:05:22.076Z,7.10
2023-04-15T07:08:25.640Z,7.11
2023-04-15T07:11:28.401Z,7.22
2023-04-15T07:14:31.352Z,7.31
2023-04-15T07:17:34.397Z,7.31
2023-04-15T07:20:37.104Z,7.32
2023-04-15T07:23:40.298Z,7.41
2023-04-15T07:26:42.864Z,7.56
2023-04-15T07:29:45.733Z,7.76
2023-04-15T07:32:48.488Z,7.78
2023-04-15T07:35:51.819Z,7.71
2023-04-15T07:38:55.386Z,7.68
2023-04-15T07:41:59.108Z,7.75
2023-04-15T07:45:02.602Z,7.83
2023-04-15T07:48:06.728Z,7.83
2023-04-15T07:51:10.844Z,7.90
2023-04-15T07:54:14.082Z,7.98
2023-04-15T07:57:17.915Z,8.10
2023-04-15T08:00:20.810Z,8.14
2023-04-15T08:03:23.907Z,8.24
2023-04-15T08:06:27.511Z,8.33
2023-04-15T08:09:30.569Z,8.25
2023-04-15T08:12:33.407Z,8.49
2023-04-15T08:15:36.447Z,8.58
2023-04-15T08:18:39.436Z,8.73
2023-04-15T08:21:42.370Z,9.26
2023-04-15T08:24:45.154Z,9.86
2023-04-15T08:27:48.201Z,9.88
2023-04-15T08:30:51.242Z,9.55
2023-04-15T08:33:56.905Z,9.49
2023-04-15T08:37:00.443Z,9.44
2023-04-15T08:40:04.826Z,9.44
2023-04-15T08:43:10.168Z,9.34
2023-04-15T08:46:13.388Z,9.31
2023-04-15T08:49:18.094Z,9.71
2023-04-15T08:52:21.552Z,10.12
2023-04-15T08:55:26.692Z,10.31
2023-04-15T08:58:30.199Z,10.60
2023-04-15T09:01:33.304Z,10.83
2023-04-15T09:04:36.369Z,11.28
2023-04-15T09:07:39.470Z,11.37
2023-04-15T09:10:42.351Z,11.38
2023-04-15T09:13:45.713Z,11.15
2023-04-15T09:17:01.887Z,11.01
2023-04-15T09:20:15.299Z,10.97
2023-04-15T09:23:18.316Z,10.84
2023-04-15T09:26:31.067Z,10.79
2023-04-15T09:29:33.906Z,10.73
2023-04-15T09:32:49.654Z,10.43
2023-04-15T09:36:01.676Z,10.23
2023-04-15T09:39:04.451Z,10.35
2023-04-15T09:42:08.449Z,10.33
2023-04-15T09:45:12.140Z,10.24
2023-04-15T09:48:21.152Z,10.17
2023-04-15T09:51:35.095Z,9.99
2023-04-15T09:54:38.921Z,10.03
2023-04-15T09:57:41.870Z,10.12
2023-04-15T10:00:46.180Z,10.31
2023-04-15T10:03:49.692Z,10.64
2023-04-15T10:06:52.492Z,12.22
2023-04-15T10:09:56.606Z,12.27
2023-04-15T10:12:59.351Z,11.98
2023-04-15T10:16:15.944Z,11.63
2023-04-15T10:19:21.874Z,11.13
2023-04-15T10:22:25.981Z,10.65
2023-04-15T10:25:29.405Z,10.58
2023-04-15T10:28:32.457Z,11.02
2023-04-15T10:31:38.236Z,10.85
2023-04-15T10:34:42.152Z,10.82
2023-04-15T10:37:44.653Z,10.61
2023-04-15T10:40:47.688Z,10.35
2023-04-15T10:43:54.151Z,9.94
2023-04-15T10:46:58.914Z,9.74
2023-04-15T10:50:02.522Z,9.73
2023-04-15T10:53:05.768Z,10.13
2023-04-15T10:56:08.589Z,10.28
2023-04-15T10:59:11.738Z,10.20
2023-04-15T11:02:15.714Z,10.07
2023-04-15T11:05:20.059Z,10.12
2023-04-15T11:08:56.218Z,10.03
2023-04-15T11:12:05.600Z,9.89
2023-04-15T11:15:27.125Z,9.75
2023-04-15T11:18:31.303Z,9.64
2023-04-15T11:21:34.230Z,9.62
2023-04-15T11:24:37.824Z,9.62
2023-04-15T11:27:40.466Z,9.65
2023-04-15T11:30:43.984Z,9.87
2023-04-15T11:33:56.619Z,10.15
2023-04-15T11:36:59.551Z,10.57
2023-04-15T11:40:03.631Z,10.95
2023-04-15T11:43:09.118Z,10.77
2023-04-15T11:46:11.681Z,10.54
2023-04-15T11:49:34.985Z,10.77
2023-04-15T11:52:37.565Z,11.26
2023-04-15T11:55:46.282Z,12.02
2023-04-15T11:58:51.706Z,12.26
2023-04-15T12:01:55.107Z,12.94
2023-04-15T12:05:05.438Z,13.24
2023-04-15T12:08:08.064Z,13.01
2023-04-15T12:11:11.119Z,12.36
2023-04-15T12:14:26.813Z,12.11
2023-04-15T12:17:29.879Z,11.68
2023-04-15T12:20:52.517Z,11.76
2023-04-15T12:23:57.185Z,11.78
2023-04-15T12:27:07.311Z,11.72
2023-04-15T12:30:11.753Z,11.59
2023-04-15T12:33:14.751Z,11.40
2023-04-15T12:36:17.841Z,11.44
2023-04-15T12:39:25.375Z,11.47
2023-04-15T12:42:28.348Z,11.53
2023-04-15T12:45:30.938Z,11.74
2023-04-15T12:48:34.373Z,12.12
2023-04-15T12:51:37.711Z,12.17
2023-04-15T12:54:40.717Z,11.97
2023-04-15T12:57:43.604Z,11.84
2023-04-15T13:00:47.046Z,11.71
2023-04-15T13:03:51.233Z,11.44
2023-04-15T13:06:54.331Z,11.30
2023-04-15T13:09:57.094Z,11.00
2023-04-15T13:13:00.026Z,10.94
2023-04-15T13:16:03.012Z,10.65
2023-04-15T13:19:06.504Z,10.45
2023-04-15T13:22:09.441Z,10.14
2023-04-15T13:25:12.600Z,10.31
2023-04-15T13:28:15.142Z,10.23
2023-04-15T13:31:18.081Z,10.06
2023-04-15T13:34:21.428Z,9.88
2023-04-15T13:37:28.252Z,9.83
2023-04-15T13:40:31.606Z,9.84
2023-04-15T13:43:34.733Z,9.85
2023-04-15T13:46:39.606Z,9.96
2023-04-15T13:49:42.680Z,9.97
2023-04-15T13:52:45.392Z,10.22
2023-04-15T13:55:48.491Z,10.37
2023-04-15T13:58:52.976Z,10.48
2023-04-15T14:01:56.272Z,10.83
2023-04-15T14:04:59.281Z,10.98
2023-04-15T14:08:01.915Z,11.02
2023-04-15T14:11:04.787Z,10.78
2023-04-15T14:14:08.002Z,10.57
2023-04-15T14:17:11.120Z,10.39
2023-04-15T14:20:15.619Z,10.34
2023-04-15T14:23:20.131Z,10.30
2023-04-15T14:26:22.618Z,10.24
2023-04-15T14:29:26.389Z,10.29
2023-04-15T14:32:29.322Z,10.28
2023-04-15T14:35:32.548Z,10.17
2023-04-15T14:38:39.790Z,10.18
2023-04-15T14:41:42.659Z,10.25
2023-04-15T14:44:45.382Z,10.21
2023-04-15T14:47:48.649Z,10.19
2023-04-15T14:50:51.309Z,10.24
2023-04-15T14:53:54.261Z,10.25
2023-04-15T14:56:57.295Z,10.18
2023-04-15T15:00:00.351Z,10.09
2023-04-15T15:03:03.252Z,10.06
2023-04-15T15:06:06.301Z,10.07
2023-04-15T15:09:09.188Z,9.89
2023-04-15T15:12:12.041Z,10.02
2023-04-15T15:15:28.001Z,9.97
2023-04-15T15:18:31.597Z,10.01
2023-04-15T15:21:34.711Z,10.12
2023-04-15T15:24:37.492Z,10.04
2023-04-15T15:27:40.411Z,9.95
2023-04-15T15:30:43.263Z,9.92
2023-04-15T15:33:45.779Z,10.00
2023-04-15T15:36:48.708Z,10.16
2023-04-15T15:39:52.903Z,9.90
2023-04-15T15:42:55.750Z,9.98
2023-04-15T15:45:58.281Z,9.90
2023-04-15T15:49:03.496Z,9.78
2023-04-15T15:52:06.644Z,9.75
2023-04-15T15:55:09.495Z,9.72
2023-04-15T15:58:12.150Z,9.68
2023-04-15T16:01:15.044Z,9.66
2023-04-15T16:04:18.445Z,9.64
2023-04-15T16:07:21.286Z,9.61
2023-04-15T16:10:24.211Z,9.53
2023-04-15T16:13:26.758Z,9.68
2023-04-15T16:16:30.117Z,9.81
2023-04-15T16:19:32.759Z,9.97
2023-04-15T16:22:36.051Z,10.01
2023-04-15T16:25:38.694Z,10.04
2023-04-15T16:28:41.795Z,10.00
2023-04-15T16:31:44.501Z,9.99
2023-04-15T16:34:47.483Z,10.01
2023-04-15T16:37:50.449Z,9.97
2023-04-15T16:40:53.771Z,9.90
2023-04-15T16:43:57.548Z,9.96
2023-04-15T16:47:02.859Z,9.95
2023-04-15T16:50:05.991Z,9.96
2023-04-15T16:53:09.090Z,9.97
2023-04-15T16:56:11.653Z,10.04
2023-04-15T16:59:14.770Z,10.04
2023-04-15T17:02:17.764Z,10.02
2023-04-15T17:05:21.093Z,10.03
2023-04-15T17:08:23.880Z,10.06
2023-04-15T17:11:27.987Z,10.13
2023-04-15T17:14:31.557Z,10.13
2023-04-15T17:17:34.547Z,10.00
2023-04-15T17:20:38.698Z,9.94
2023-04-15T17:23:41.950Z,10.00
2023-04-15T17:26:44.639Z,9.98
2023-04-15T17:29:47.551Z,9.99
2023-04-15T17:32:51.680Z,9.97
2023-04-15T17:35:54.679Z,9.94
2023-04-15T17:38:57.926Z,9.90
2023-04-15T17:42:01.318Z,9.94
2023-04-15T17:45:04.074Z,9.99
2023-04-15T17:48:07.246Z,9.90
2023-04-15T17:51:10.091Z,9.83
2023-04-15T17:54:13.204Z,9.83
2023-04-15T17:57:16.674Z,9.78
2023-04-15T18:00:19.586Z,9.46
2023-04-15T18:03:24.830Z,9.24
2023-04-15T18:06:27.987Z,9.03
2023-04-15T18:09:31.252Z,8.90
2023-04-15T18:12:34.112Z,8.79
2023-04-15T18:15:37.258Z,8.69
2023-04-15T18:18:40.064Z,8.63
2023-04-15T18:21:43.016Z,8.52
2023-04-15T18:24:45.891Z,8.49
2023-04-15T18:27:49.182Z,8.44
2023-04-15T18:30:52.004Z,8.42
2023-04-15T18:33:55.208Z,8.38
2023-04-15T18:36:58.387Z,8.31
2023-04-15T18:40:01.623Z,8.25
2023-04-15T18:43:04.580Z,8.19
2023-04-15T18:46:11.777Z,8.32
2023-04-15T18:49:14.997Z,8.74
2023-04-15T18:52:18.181Z,8.80
2023-04-15T18:55:21.273Z,8.63
2023-04-15T18:58:24.391Z,8.50
2023-04-15T19:01:27.275Z,8.42
2023-04-15T19:04:30.509Z,8.29
2023-04-15T19:07:33.387Z,8.23
2023-04-15T19:10:36.611Z,8.17
2023-04-15T19:13:39.406Z,8.13
2023-04-15T19:16:42.330Z,8.55
2023-04-15T19:19:45.185Z,8.50
2023-04-15T19:22:48.577Z,8.33
2023-04-15T19:25:51.474Z,8.25
2023-04-15T19:28:56.480Z,8.20
2023-04-15T19:31:59.476Z,8.17
2023-04-15T19:35:03.214Z,8.13
2023-04-15T19:38:06.265Z,8.10
2023-04-15T19:41:10.983Z,8.07
2023-04-15T19:44:13.917Z,8.09
2023-04-15T19:47:17.267Z,8.07
2023-04-15T19:50:26.447Z,8.05
2023-04-15T19:53:29.571Z,8.06
2023-04-15T19:56:34.378Z,8.04
2023-04-15T19:59:38.015Z,8.05
2023-04-15T20:02:41.357Z,8.07
2023-04-15T20:05:45.124Z,8.05
2023-04-15T20:08:48.194Z,8.05
2023-04-15T20:12:47.848Z,8.05
2023-04-15T20:15:14.865Z,8.03
2023-04-15T20:18:18.056Z,7.94
2023-04-15T20:21:20.923Z,7.98
2023-04-15T20:24:24.603Z,7.97
2023-04-15T20:27:27.575Z,8.00
2023-04-15T20:30:30.797Z,8.02
2023-04-15T20:33:33.572Z,8.00
2023-04-15T20:36:36.563Z,7.96
2023-04-15T20:39:40.759Z,7.94
2023-04-15T20:42:43.810Z,7.96
2023-04-15T20:45:46.871Z,7.95
2023-04-15T20:48:50.109Z,7.90
2023-04-15T20:51:52.944Z,7.86
2023-04-15T20:54:56.197Z,7.78
2023-04-15T20:57:59.492Z,7.75
2023-04-15T21:01:02.534Z,7.74
2023-04-15T21:04:06.040Z,7.73
2023-04-15T21:07:10.030Z,7.72
2023-04-15T21:10:12.472Z,7.68
2023-04-15T21:13:17.690Z,7.66
2023-04-15T21:16:20.186Z,7.62
2023-04-15T21:19:22.958Z,7.59
2023-04-15T21:22:26.271Z,7.56
2023-04-15T21:25:29.264Z,7.49
2023-04-15T21:28:31.926Z,7.45
2023-04-15T21:31:34.911Z,7.43
2023-04-15T21:34:37.506Z,7.40
2023-04-15T21:37:40.362Z,7.35
2023-04-15T21:40:42.899Z,7.35
2023-04-15T21:43:45.782Z,7.34
2023-04-15T21:46:48.438Z,7.35
2023-04-15T21:49:51.534Z,7.32
2023-04-15T21:52:53.996Z,7.31
2023-04-15T21:55:56.873Z,7.34
2023-04-15T21:58:59.704Z,7.33
2023-04-15T22:02:02.633Z,7.33
2023-04-15T22:05:06.918Z,7.34
2023-04-15T22:08:09.467Z,7.32
2023-04-15T22:11:21.588Z,7.31
2023-04-15T22:14:24.125Z,7.28
2023-04-15T22:17:27.689Z,7.28
2023-04-15T22:20:30.422Z,7.27
2023-04-15T22:23:33.224Z,7.21
2023-04-15T22:26:35.842Z,7.22
2023-04-15T22:29:38.775Z,7.23
2023-04-15T22:32:41.447Z,7.20
2023-04-15T22:35:44.293Z,7.16
2023-04-15T22:38:47.305Z,7.14
2023-04-15T22:41:50.068Z,7.09
2023-04-15T22:44:52.656Z,7.07
2023-04-15T22:47:55.425Z,6.94
2023-04-15T22:50:58.116Z,6.85
2023-04-15T22:54:00.945Z,6.76
2023-04-15T22:57:03.545Z,6.72
2023-04-15T23:00:07.491Z,6.69
2023-04-15T23:03:10.415Z,6.67
2023-04-15T23:06:13.837Z,6.67
2023-04-15T23:09:16.302Z,6.65
2023-04-15T23:12:19.151Z,6.61
2023-04-15T23:15:21.760Z,6.59
2023-04-15T23:18:24.829Z,6.54
2023-04-15T23:21:28.489Z,6.47
2023-04-15T23:24:31.340Z,6.42
2023-04-15T23:27:34.523Z,6.43
2023-04-15T23:30:37.573Z,6.39
2023-04-15T23:33:40.314Z,6.36
2023-04-15T23:36:43.039Z,6.32
2023-04-15T23:39:45.768Z,6.27
2023-04-15T23:42:48.616Z,6.27
2023-04-15T23:45:51.199Z,6.27
2023-04-15T23:48:54.084Z,6.27
2023-04-15T23:51:57.532Z,6.21
2023-04-15T23:55:00.492Z,6.20
2023-04-15T23:58:02.979Z,6.21
